Terminal Aerodrome Forecast
Issued by NWS Spokane, WA

Home | Current Version | Previous Version | Text Only | Print | Product List | Glossary On
Versions: 1 2 3 4 5 6 7 8 9 10 11 12 13 14 15 16 17 18 19 20 21 22 23 24 25 26 27 28 29 30 31
000
FTUS46 KOTX 281147 CCA
TAFEAT
TAF COR
KEAT 281147Z 2812/2912 27008KT P6SM SCT060 BKN100
     FM282100 30004KT P6SM BKN040 BKN080
     FM290300 VRB03KT P6SM VCSH BKN035 OVC060
     FM290900 35005KT 3SM -SN SCT008 OVC015=

USA.gov is the U.S. government's official web portal to all federal, state and local government web resources and services.